sensor_id;sensor_type;location;lat;lon;timestamp;temperature;humidity
23471;DHT22;11908;50.806;4.424;2023-03-11T00:01:39;2.00;99.90
23471;DHT22;11908;50.806;4.424;2023-03-11T00:04:05;2.00;99.90
23471;DHT22;11908;50.806;4.424;2023-03-11T00:06:34;2.00;99.90
23471;DHT22;11908;50.806;4.424;2023-03-11T00:09:00;2.10;99.90
23471;DHT22;11908;50.806;4.424;2023-03-11T00:11:25;2.20;99.90
23471;DHT22;11908;50.806;4.424;2023-03-11T00:13:51;2.20;99.90
23471;DHT22;11908;50.806;4.424;2023-03-11T00:16:17;2.20;99.90
23471;DHT22;11908;50.806;4.424;2023-03-11T00:18:43;2.00;99.90
23471;DHT22;11908;50.806;4.424;2023-03-11T00:21:14;2.00;99.90
23471;DHT22;11908;50.806;4.424;2023-03-11T00:23:41;2.00;99.90
23471;DHT22;11908;50.806;4.424;2023-03-11T00:26:07;2.10;99.90
23471;DHT22;11908;50.806;4.424;2023-03-11T00:28:33;2.10;99.90
23471;DHT22;11908;50.806;4.424;2023-03-11T00:30:58;2.00;99.90
23471;DHT22;11908;50.806;4.424;2023-03-11T00:33:24;1.90;99.90
23471;DHT22;11908;50.806;4.424;2023-03-11T00:35:50;1.90;99.90
23471;DHT22;11908;50.806;4.424;2023-03-11T00:38:16;1.90;99.90
23471;DHT22;11908;50.806;4.424;2023-03-11T00:40:44;1.90;99.90
23471;DHT22;11908;50.806;4.424;2023-03-11T00:43:10;1.90;99.90
23471;DHT22;11908;50.806;4.424;2023-03-11T00:45:36;2.00;99.90
23471;DHT22;11908;50.806;4.424;2023-03-11T00:48:02;1.90;99.90
23471;DHT22;11908;50.806;4.424;2023-03-11T00:50:31;2.00;99.90
23471;DHT22;11908;50.806;4.424;2023-03-11T00:52:58;1.90;99.90
23471;DHT22;11908;50.806;4.424;2023-03-11T00:55:27;1.80;99.90
23471;DHT22;11908;50.806;4.424;2023-03-11T00:57:55;1.80;99.90
23471;DHT22;11908;50.806;4.424;2023-03-11T01:00:23;1.90;99.90
23471;DHT22;11908;50.806;4.424;2023-03-11T01:02:49;1.90;99.90
23471;DHT22;11908;50.806;4.424;2023-03-11T01:05:18;1.80;99.90
23471;DHT22;11908;50.806;4.424;2023-03-11T01:07:45;1.80;99.90
23471;DHT22;11908;50.806;4.424;2023-03-11T01:10:11;1.80;99.90
23471;DHT22;11908;50.806;4.424;2023-03-11T01:12:37;1.80;99.90
23471;DHT22;11908;50.806;4.424;2023-03-11T01:15:04;1.80;99.90
23471;DHT22;11908;50.806;4.424;2023-03-11T01:17:30;1.80;99.90
23471;DHT22;11908;50.806;4.424;2023-03-11T01:19:56;1.90;99.90
23471;DHT22;11908;50.806;4.424;2023-03-11T01:22:21;1.90;99.90
23471;DHT22;11908;50.806;4.424;2023-03-11T01:24:47;1.80;99.90
23471;DHT22;11908;50.806;4.424;2023-03-11T01:27:13;1.80;99.90
23471;DHT22;11908;50.806;4.424;2023-03-11T01:29:38;1.80;99.90
23471;DHT22;11908;50.806;4.424;2023-03-11T01:32:04;1.90;99.90
23471;DHT22;11908;50.806;4.424;2023-03-11T01:34:31;1.90;99.90
23471;DHT22;11908;50.806;4.424;2023-03-11T01:37:01;1.90;99.90
23471;DHT22;11908;50.806;4.424;2023-03-11T01:39:26;1.90;99.90
23471;DHT22;11908;50.806;4.424;2023-03-11T01:41:52;1.90;99.90
23471;DHT22;11908;50.806;4.424;2023-03-11T01:44:18;1.90;99.90
23471;DHT22;11908;50.806;4.424;2023-03-11T01:49:19;1.80;99.90
23471;DHT22;11908;50.806;4.424;2023-03-11T01:51:48;1.90;99.90
23471;DHT22;11908;50.806;4.424;2023-03-11T01:54:20;1.90;99.90
23471;DHT22;11908;50.806;4.424;2023-03-11T01:56:48;1.80;99.90
23471;DHT22;11908;50.806;4.424;2023-03-11T01:59:18;1.80;99.90
23471;DHT22;11908;50.806;4.424;2023-03-11T02:01:59;1.90;99.90
23471;DHT22;11908;50.806;4.424;2023-03-11T02:04:27;1.80;99.90
23471;DHT22;11908;50.806;4.424;2023-03-11T02:06:55;1.90;99.90
23471;DHT22;11908;50.806;4.424;2023-03-11T02:09:21;1.90;99.90
23471;DHT22;11908;50.806;4.424;2023-03-11T02:11:49;1.90;99.90
23471;DHT22;11908;50.806;4.424;2023-03-11T02:14:15;1.90;99.90
23471;DHT22;11908;50.806;4.424;2023-03-11T02:16:41;2.00;99.90
23471;DHT22;11908;50.806;4.424;2023-03-11T02:21:45;2.00;99.90
23471;DHT22;11908;50.806;4.424;2023-03-11T02:24:29;2.00;99.90
23471;DHT22;11908;50.806;4.424;2023-03-11T02:27:05;2.00;99.90
23471;DHT22;11908;50.806;4.424;2023-03-11T02:29:32;2.10;99.90
23471;DHT22;11908;50.806;4.424;2023-03-11T02:32:00;2.10;99.90
23471;DHT22;11908;50.806;4.424;2023-03-11T02:34:29;2.10;99.90
23471;DHT22;11908;50.806;4.424;2023-03-11T02:36:56;2.30;99.90
23471;DHT22;11908;50.806;4.424;2023-03-11T02:39:36;2.30;99.90
23471;DHT22;11908;50.806;4.424;2023-03-11T02:42:14;2.20;99.90
23471;DHT22;11908;50.806;4.424;2023-03-11T02:44:44;2.30;99.90
23471;DHT22;11908;50.806;4.424;2023-03-11T02:47:11;2.20;99.90
23471;DHT22;11908;50.806;4.424;2023-03-11T02:49:37;2.20;99.90
23471;DHT22;11908;50.806;4.424;2023-03-11T02:52:03;2.30;99.90
23471;DHT22;11908;50.806;4.424;2023-03-11T02:54:29;2.20;99.90
23471;DHT22;11908;50.806;4.424;2023-03-11T02:56:55;2.00;99.90
23471;DHT22;11908;50.806;4.424;2023-03-11T02:59:20;1.90;99.90
23471;DHT22;11908;50.806;4.424;2023-03-11T03:01:46;1.90;99.90
23471;DHT22;11908;50.806;4.424;2023-03-11T03:04:12;1.70;99.90
23471;DHT22;11908;50.806;4.424;2023-03-11T03:06:37;1.80;99.90
23471;DHT22;11908;50.806;4.424;2023-03-11T03:09:03;1.90;99.90
23471;DHT22;11908;50.806;4.424;2023-03-11T03:11:29;1.90;99.90
23471;DHT22;11908;50.806;4.424;2023-03-11T03:13:55;1.80;99.90
23471;DHT22;11908;50.806;4.424;2023-03-11T03:16:20;1.90;99.90
23471;DHT22;11908;50.806;4.424;2023-03-11T03:18:46;1.90;99.90
23471;DHT22;11908;50.806;4.424;2023-03-11T03:21:12;2.00;99.90
23471;DHT22;11908;50.806;4.424;2023-03-11T03:23:37;2.10;99.90
23471;DHT22;11908;50.806;4.424;2023-03-11T03:26:04;2.10;99.90
23471;DHT22;11908;50.806;4.424;2023-03-11T03:28:30;2.10;99.90
23471;DHT22;11908;50.806;4.424;2023-03-11T03:31:03;2.20;99.90
23471;DHT22;11908;50.806;4.424;2023-03-11T03:33:30;2.10;99.90
23471;DHT22;11908;50.806;4.424;2023-03-11T03:35:56;2.20;99.90
23471;DHT22;11908;50.806;4.424;2023-03-11T03:38:21;2.20;99.90
23471;DHT22;11908;50.806;4.424;2023-03-11T03:40:47;2.20;99.90
23471;DHT22;11908;50.806;4.424;2023-03-11T03:43:13;2.30;99.90
23471;DHT22;11908;50.806;4.424;2023-03-11T03:45:39;2.30;99.90
23471;DHT22;11908;50.806;4.424;2023-03-11T03:48:05;2.30;99.90
23471;DHT22;11908;50.806;4.424;2023-03-11T03:50:31;2.30;99.90
23471;DHT22;11908;50.806;4.424;2023-03-11T03:52:57;2.30;99.90
23471;DHT22;11908;50.806;4.424;2023-03-11T03:55:23;2.20;99.90
23471;DHT22;11908;50.806;4.424;2023-03-11T03:57:48;2.20;99.90
23471;DHT22;11908;50.806;4.424;2023-03-11T04:00:14;2.30;99.90
23471;DHT22;11908;50.806;4.424;2023-03-11T04:02:40;2.30;99.90
23471;DHT22;11908;50.806;4.424;2023-03-11T04:05:07;2.30;99.90
23471;DHT22;11908;50.806;4.424;2023-03-11T04:07:34;2.30;99.90
23471;DHT22;11908;50.806;4.424;2023-03-11T04:10:00;2.30;99.90
23471;DHT22;11908;50.806;4.424;2023-03-11T04:12:26;2.30;99.90
23471;DHT22;11908;50.806;4.424;2023-03-11T04:14:52;2.30;99.90
23471;DHT22;11908;50.806;4.424;2023-03-11T04:17:18;2.20;99.90
23471;DHT22;11908;50.806;4.424;2023-03-11T04:19:44;2.20;99.90
23471;DHT22;11908;50.806;4.424;2023-03-11T04:22:09;2.20;99.90
23471;DHT22;11908;50.806;4.424;2023-03-11T04:24:35;2.30;99.90
23471;DHT22;11908;50.806;4.424;2023-03-11T04:27:01;2.30;99.90
23471;DHT22;11908;50.806;4.424;2023-03-11T04:29:27;2.30;99.90
23471;DHT22;11908;50.806;4.424;2023-03-11T04:31:52;2.20;99.90
23471;DHT22;11908;50.806;4.424;2023-03-11T04:34:18;2.20;99.90
23471;DHT22;11908;50.806;4.424;2023-03-11T04:36:44;2.10;99.90
23471;DHT22;11908;50.806;4.424;2023-03-11T04:39:10;2.00;99.90
23471;DHT22;11908;50.806;4.424;2023-03-11T04:41:36;2.10;99.90
23471;DHT22;11908;50.806;4.424;2023-03-11T04:44:02;2.00;99.90
23471;DHT22;11908;50.806;4.424;2023-03-11T04:46:27;1.90;99.90
23471;DHT22;11908;50.806;4.424;2023-03-11T04:48:53;1.90;99.90
23471;DHT22;11908;50.806;4.424;2023-03-11T04:51:19;1.90;99.90
23471;DHT22;11908;50.806;4.424;2023-03-11T04:53:45;1.90;99.90
23471;DHT22;11908;50.806;4.424;2023-03-11T04:56:10;1.80;99.90
23471;DHT22;11908;50.806;4.424;2023-03-11T04:58:36;1.90;99.90
23471;DHT22;11908;50.806;4.424;2023-03-11T05:01:02;1.80;99.90
23471;DHT22;11908;50.806;4.424;2023-03-11T05:03:28;1.70;99.90
23471;DHT22;11908;50.806;4.424;2023-03-11T05:05:53;1.60;99.90
23471;DHT22;11908;50.806;4.424;2023-03-11T05:08:22;1.60;99.90
23471;DHT22;11908;50.806;4.424;2023-03-11T05:10:49;1.40;99.90
23471;DHT22;11908;50.806;4.424;2023-03-11T05:13:15;1.40;99.90
23471;DHT22;11908;50.806;4.424;2023-03-11T05:15:41;1.40;99.90
23471;DHT22;11908;50.806;4.424;2023-03-11T05:18:07;1.40;99.90
23471;DHT22;11908;50.806;4.424;2023-03-11T05:20:32;1.30;99.90
23471;DHT22;11908;50.806;4.424;2023-03-11T05:22:58;1.30;99.90
23471;DHT22;11908;50.806;4.424;2023-03-11T05:25:24;1.30;99.90
23471;DHT22;11908;50.806;4.424;2023-03-11T05:27:50;1.20;99.90
23471;DHT22;11908;50.806;4.424;2023-03-11T05:30:16;1.20;99.90
23471;DHT22;11908;50.806;4.424;2023-03-11T05:32:41;1.20;99.90
23471;DHT22;11908;50.806;4.424;2023-03-11T05:35:07;1.10;99.90
23471;DHT22;11908;50.806;4.424;2023-03-11T05:37:33;1.10;99.90
23471;DHT22;11908;50.806;4.424;2023-03-11T05:40:00;1.10;99.90
23471;DHT22;11908;50.806;4.424;2023-03-11T05:42:25;1.10;99.90
23471;DHT22;11908;50.806;4.424;2023-03-11T05:44:51;1.10;99.90
23471;DHT22;11908;50.806;4.424;2023-03-11T05:47:17;1.10;99.90
23471;DHT22;11908;50.806;4.424;2023-03-11T05:49:43;1.10;99.90
23471;DHT22;11908;50.806;4.424;2023-03-11T05:52:08;1.20;99.90
23471;DHT22;11908;50.806;4.424;2023-03-11T05:54:34;1.10;99.90
23471;DHT22;11908;50.806;4.424;2023-03-11T05:57:00;1.10;99.90
23471;DHT22;11908;50.806;4.424;2023-03-11T05:59:25;1.00;99.90
23471;DHT22;11908;50.806;4.424;2023-03-11T06:01:51;1.00;99.90
23471;DHT22;11908;50.806;4.424;2023-03-11T06:04:17;1.00;99.90
23471;DHT22;11908;50.806;4.424;2023-03-11T06:06:43;1.10;99.90
23471;DHT22;11908;50.806;4.424;2023-03-11T06:09:12;1.00;99.90
23471;DHT22;11908;50.806;4.424;2023-03-11T06:11:38;1.10;99.90
23471;DHT22;11908;50.806;4.424;2023-03-11T06:14:04;1.10;99.90
23471;DHT22;11908;50.806;4.424;2023-03-11T06:16:30;1.30;99.90
23471;DHT22;11908;50.806;4.424;2023-03-11T06:18:55;1.40;99.90
23471;DHT22;11908;50.806;4.424;2023-03-11T06:21:23;1.40;99.90
23471;DHT22;11908;50.806;4.424;2023-03-11T06:23:51;1.30;99.90
23471;DHT22;11908;50.806;4.424;2023-03-11T06:26:18;1.30;99.90
23471;DHT22;11908;50.806;4.424;2023-03-11T06:28:45;1.20;99.90
23471;DHT22;11908;50.806;4.424;2023-03-11T06:31:14;1.40;99.90
23471;DHT22;11908;50.806;4.424;2023-03-11T06:33:41;1.40;99.90
23471;DHT22;11908;50.806;4.424;2023-03-11T06:36:07;1.50;99.90
23471;DHT22;11908;50.806;4.424;2023-03-11T06:38:33;1.60;99.90
23471;DHT22;11908;50.806;4.424;2023-03-11T06:41:04;1.70;99.90
23471;DHT22;11908;50.806;4.424;2023-03-11T06:43:30;1.70;99.90
23471;DHT22;11908;50.806;4.424;2023-03-11T06:45:57;1.80;99.90
23471;DHT22;11908;50.806;4.424;2023-03-11T06:48:23;1.90;99.90
23471;DHT22;11908;50.806;4.424;2023-03-11T06:50:58;1.90;99.90
23471;DHT22;11908;50.806;4.424;2023-03-11T06:53:26;2.10;99.90
23471;DHT22;11908;50.806;4.424;2023-03-11T06:56:04;2.20;99.90
23471;DHT22;11908;50.806;4.424;2023-03-11T06:58:30;2.30;99.90
23471;DHT22;11908;50.806;4.424;2023-03-11T07:01:01;2.60;99.90
23471;DHT22;11908;50.806;4.424;2023-03-11T07:03:27;2.80;99.90
23471;DHT22;11908;50.806;4.424;2023-03-11T07:05:53;2.90;99.90
23471;DHT22;11908;50.806;4.424;2023-03-11T07:08:18;3.10;99.90
23471;DHT22;11908;50.806;4.424;2023-03-11T07:10:44;3.10;99.90
23471;DHT22;11908;50.806;4.424;2023-03-11T07:13:11;3.10;99.90
23471;DHT22;11908;50.806;4.424;2023-03-11T07:15:37;3.20;99.90
23471;DHT22;11908;50.806;4.424;2023-03-11T07:18:03;3.30;99.90
23471;DHT22;11908;50.806;4.424;2023-03-11T07:20:28;3.60;99.90
23471;DHT22;11908;50.806;4.424;2023-03-11T07:22:54;3.70;99.90
23471;DHT22;11908;50.806;4.424;2023-03-11T07:25:20;3.70;99.90
23471;DHT22;11908;50.806;4.424;2023-03-11T07:27:46;3.90;99.90
23471;DHT22;11908;50.806;4.424;2023-03-11T07:30:14;4.10;99.90
23471;DHT22;11908;50.806;4.424;2023-03-11T07:32:40;4.30;99.90
23471;DHT22;11908;50.806;4.424;2023-03-11T07:35:06;4.50;99.90
23471;DHT22;11908;50.806;4.424;2023-03-11T07:37:32;4.60;99.90
23471;DHT22;11908;50.806;4.424;2023-03-11T07:39:58;4.70;99.90
23471;DHT22;11908;50.806;4.424;2023-03-11T07:42:23;4.80;99.90
23471;DHT22;11908;50.806;4.424;2023-03-11T07:44:50;5.00;99.90
23471;DHT22;11908;50.806;4.424;2023-03-11T07:47:16;5.10;99.90
23471;DHT22;11908;50.806;4.424;2023-03-11T07:49:41;5.10;99.90
23471;DHT22;11908;50.806;4.424;2023-03-11T07:52:07;5.50;99.90
23471;DHT22;11908;50.806;4.424;2023-03-11T07:54:33;5.80;99.90
23471;DHT22;11908;50.806;4.424;2023-03-11T07:56:59;6.10;99.90
23471;DHT22;11908;50.806;4.424;2023-03-11T07:59:24;6.30;99.90
23471;DHT22;11908;50.806;4.424;2023-03-11T08:01:50;6.50;99.90
23471;DHT22;11908;50.806;4.424;2023-03-11T08:04:16;6.60;99.90
23471;DHT22;11908;50.806;4.424;2023-03-11T08:06:44;6.70;99.90
23471;DHT22;11908;50.806;4.424;2023-03-11T08:09:10;6.90;99.90
23471;DHT22;11908;50.806;4.424;2023-03-11T08:11:36;7.00;99.90
23471;DHT22;11908;50.806;4.424;2023-03-11T08:14:03;7.00;99.90
23471;DHT22;11908;50.806;4.424;2023-03-11T08:16:29;7.10;99.90
23471;DHT22;11908;50.806;4.424;2023-03-11T08:18:55;7.50;99.90
23471;DHT22;11908;50.806;4.424;2023-03-11T08:21:23;7.80;99.90
23471;DHT22;11908;50.806;4.424;2023-03-11T08:23:50;7.70;99.90
23471;DHT22;11908;50.806;4.424;2023-03-11T08:26:18;7.90;99.90
23471;DHT22;11908;50.806;4.424;2023-03-11T08:28:45;8.10;99.90
23471;DHT22;11908;50.806;4.424;2023-03-11T08:31:19;8.60;99.90
23471;DHT22;11908;50.806;4.424;2023-03-11T08:33:49;9.20;99.90
23471;DHT22;11908;50.806;4.424;2023-03-11T08:36:16;9.80;99.90
23471;DHT22;11908;50.806;4.424;2023-03-11T08:38:41;10.60;99.90
23471;DHT22;11908;50.806;4.424;2023-03-11T08:41:07;11.80;99.90
23471;DHT22;11908;50.806;4.424;2023-03-11T08:43:33;12.80;99.90
23471;DHT22;11908;50.806;4.424;2023-03-11T08:46:01;14.00;99.90
23471;DHT22;11908;50.806;4.424;2023-03-11T08:48:27;14.40;99.90
23471;DHT22;11908;50.806;4.424;2023-03-11T08:50:52;14.50;99.90
23471;DHT22;11908;50.806;4.424;2023-03-11T08:53:19;14.30;99.90
23471;DHT22;11908;50.806;4.424;2023-03-11T08:55:44;15.20;99.90
23471;DHT22;11908;50.806;4.424;2023-03-11T08:58:10;16.20;99.90
23471;DHT22;11908;50.806;4.424;2023-03-11T09:00:36;16.50;99.90
23471;DHT22;11908;50.806;4.424;2023-03-11T09:03:02;16.20;99.90
23471;DHT22;11908;50.806;4.424;2023-03-11T09:05:27;15.70;99.90
23471;DHT22;11908;50.806;4.424;2023-03-11T09:07:53;16.00;99.90
23471;DHT22;11908;50.806;4.424;2023-03-11T09:10:19;16.10;99.90
23471;DHT22;11908;50.806;4.424;2023-03-11T09:12:44;15.70;98.10
23471;DHT22;11908;50.806;4.424;2023-03-11T09:15:10;15.90;96.10
23471;DHT22;11908;50.806;4.424;2023-03-11T09:17:36;16.40;96.30
23471;DHT22;11908;50.806;4.424;2023-03-11T09:20:03;16.40;96.40
23471;DHT22;11908;50.806;4.424;2023-03-11T09:22:29;16.60;94.80
23471;DHT22;11908;50.806;4.424;2023-03-11T09:24:56;16.00;93.20
23471;DHT22;11908;50.806;4.424;2023-03-11T09:27:21;15.20;92.30
23471;DHT22;11908;50.806;4.424;2023-03-11T09:29:47;15.00;93.20
23471;DHT22;11908;50.806;4.424;2023-03-11T09:32:13;14.00;94.10
23471;DHT22;11908;50.806;4.424;2023-03-11T09:34:40;13.60;96.40
23471;DHT22;11908;50.806;4.424;2023-03-11T09:37:06;14.10;95.70
23471;DHT22;11908;50.806;4.424;2023-03-11T09:39:31;13.90;95.60
23471;DHT22;11908;50.806;4.424;2023-03-11T09:42:10;13.80;97.20
23471;DHT22;11908;50.806;4.424;2023-03-11T09:44:58;14.00;96.90
23471;DHT22;11908;50.806;4.424;2023-03-11T09:47:38;13.70;95.60
23471;DHT22;11908;50.806;4.424;2023-03-11T09:50:15;12.90;94.90
23471;DHT22;11908;50.806;4.424;2023-03-11T09:55:53;14.40;97.60
23471;DHT22;11908;50.806;4.424;2023-03-11T10:00:48;16.30;92.10
23471;DHT22;11908;50.806;4.424;2023-03-11T10:03:29;15.80;92.00
23471;DHT22;11908;50.806;4.424;2023-03-11T10:06:29;14.10;93.40
23471;DHT22;11908;50.806;4.424;2023-03-11T10:22:19;11.80;99.90
23471;DHT22;11908;50.806;4.424;2023-03-11T10:27:23;13.70;95.50
23471;DHT22;11908;50.806;4.424;2023-03-11T10:30:02;12.60;95.80
23471;DHT22;11908;50.806;4.424;2023-03-11T10:35:40;10.30;99.90
23471;DHT22;11908;50.806;4.424;2023-03-11T10:38:29;10.30;99.90
23471;DHT22;11908;50.806;4.424;2023-03-11T10:41:04;9.80;99.90
23471;DHT22;11908;50.806;4.424;2023-03-11T10:43:36;9.70;99.90
23471;DHT22;11908;50.806;4.424;2023-03-11T10:46:09;10.10;99.90
23471;DHT22;11908;50.806;4.424;2023-03-11T10:48:36;10.00;99.90
23471;DHT22;11908;50.806;4.424;2023-03-11T10:51:18;10.30;99.90
23471;DHT22;11908;50.806;4.424;2023-03-11T10:53:55;10.50;99.90
23471;DHT22;11908;50.806;4.424;2023-03-11T10:56:31;11.10;99.90
23471;DHT22;11908;50.806;4.424;2023-03-11T10:58:58;11.20;99.90
23471;DHT22;11908;50.806;4.424;2023-03-11T11:01:25;11.30;99.90
23471;DHT22;11908;50.806;4.424;2023-03-11T11:03:53;11.80;99.90
23471;DHT22;11908;50.806;4.424;2023-03-11T11:06:28;12.10;99.90
23471;DHT22;11908;50.806;4.424;2023-03-11T11:09:26;11.70;99.90
23471;DHT22;11908;50.806;4.424;2023-03-11T11:12:15;11.50;99.90
23471;DHT22;11908;50.806;4.424;2023-03-11T11:14:47;11.20;99.90
23471;DHT22;11908;50.806;4.424;2023-03-11T11:17:26;11.50;99.90
23471;DHT22;11908;50.806;4.424;2023-03-11T11:19:54;11.40;99.90
23471;DHT22;11908;50.806;4.424;2023-03-11T11:22:22;11.70;99.90
23471;DHT22;11908;50.806;4.424;2023-03-11T11:24:50;11.40;99.90
23471;DHT22;11908;50.806;4.424;2023-03-11T11:27:25;12.40;99.90
23471;DHT22;11908;50.806;4.424;2023-03-11T11:30:16;13.50;97.40
23471;DHT22;11908;50.806;4.424;2023-03-11T11:32:42;14.30;97.40
23471;DHT22;11908;50.806;4.424;2023-03-11T11:35:16;14.70;92.00
23471;DHT22;11908;50.806;4.424;2023-03-11T11:37:50;14.70;91.20
23471;DHT22;11908;50.806;4.424;2023-03-11T11:40:28;14.10;94.20
23471;DHT22;11908;50.806;4.424;2023-03-11T11:47:56;14.10;94.20
23471;DHT22;11908;50.806;4.424;2023-03-11T11:50:43;14.00;96.30
23471;DHT22;11908;50.806;4.424;2023-03-11T11:53:18;14.20;92.10
23471;DHT22;11908;50.806;4.424;2023-03-11T11:55:49;14.00;92.80
23471;DHT22;11908;50.806;4.424;2023-03-11T11:58:15;13.20;95.00
23471;DHT22;11908;50.806;4.424;2023-03-11T12:06:01;12.30;95.90
23471;DHT22;11908;50.806;4.424;2023-03-11T12:08:52;12.50;95.60
23471;DHT22;11908;50.806;4.424;2023-03-11T12:11:27;12.30;96.20
23471;DHT22;11908;50.806;4.424;2023-03-11T12:26:51;13.10;96.40
23471;DHT22;11908;50.806;4.424;2023-03-11T12:29:29;13.40;95.30
23471;DHT22;11908;50.806;4.424;2023-03-11T12:31:56;13.20;95.60
23471;DHT22;11908;50.806;4.424;2023-03-11T12:34:24;13.50;96.40
23471;DHT22;11908;50.806;4.424;2023-03-11T12:36:50;13.70;94.70
23471;DHT22;11908;50.806;4.424;2023-03-11T12:39:30;13.80;92.10
23471;DHT22;11908;50.806;4.424;2023-03-11T12:42:21;13.40;91.90
23471;DHT22;11908;50.806;4.424;2023-03-11T12:44:48;12.70;93.50
23471;DHT22;11908;50.806;4.424;2023-03-11T12:49:54;12.40;95.60
23471;DHT22;11908;50.806;4.424;2023-03-11T12:52:24;12.60;96.00
23471;DHT22;11908;50.806;4.424;2023-03-11T12:57:30;11.90;97.80
23471;DHT22;11908;50.806;4.424;2023-03-11T13:06:10;11.50;99.90
23471;DHT22;11908;50.806;4.424;2023-03-11T13:14:28;11.40;99.90
23471;DHT22;11908;50.806;4.424;2023-03-11T13:16:55;11.50;99.90
23471;DHT22;11908;50.806;4.424;2023-03-11T13:21:57;11.20;99.90
23471;DHT22;11908;50.806;4.424;2023-03-11T13:32:22;11.10;99.90
23471;DHT22;11908;50.806;4.424;2023-03-11T13:40:10;11.40;99.90
23471;DHT22;11908;50.806;4.424;2023-03-11T13:42:53;11.40;99.90
23471;DHT22;11908;50.806;4.424;2023-03-11T13:45:29;11.50;99.90
23471;DHT22;11908;50.806;4.424;2023-03-11T13:47:59;11.50;99.90
23471;DHT22;11908;50.806;4.424;2023-03-11T13:50:31;11.40;99.90
23471;DHT22;11908;50.806;4.424;2023-03-11T13:53:05;11.20;99.90
23471;DHT22;11908;50.806;4.424;2023-03-11T13:55:41;11.00;99.90
23471;DHT22;11908;50.806;4.424;2023-03-11T13:58:19;10.70;99.90
23471;DHT22;11908;50.806;4.424;2023-03-11T14:00:55;10.50;99.90
23471;DHT22;11908;50.806;4.424;2023-03-11T14:03:22;10.40;99.90
23471;DHT22;11908;50.806;4.424;2023-03-11T14:06:01;10.50;99.90
23471;DHT22;11908;50.806;4.424;2023-03-11T14:08:33;10.60;99.90
23471;DHT22;11908;50.806;4.424;2023-03-11T14:13:41;10.70;99.90
23471;DHT22;11908;50.806;4.424;2023-03-11T14:16:22;10.60;99.90
23471;DHT22;11908;50.806;4.424;2023-03-11T14:19:17;10.50;99.90
23471;DHT22;11908;50.806;4.424;2023-03-11T14:21:45;10.30;99.90
23471;DHT22;11908;50.806;4.424;2023-03-11T14:24:16;10.30;99.90
23471;DHT22;11908;50.806;4.424;2023-03-11T14:26:42;10.20;99.90
23471;DHT22;11908;50.806;4.424;2023-03-11T14:29:14;10.20;99.90
23471;DHT22;11908;50.806;4.424;2023-03-11T14:31:41;10.30;99.90
23471;DHT22;11908;50.806;4.424;2023-03-11T14:34:17;10.40;99.90
23471;DHT22;11908;50.806;4.424;2023-03-11T14:41:47;10.20;99.90
23471;DHT22;11908;50.806;4.424;2023-03-11T14:44:13;9.60;99.90
23471;DHT22;11908;50.806;4.424;2023-03-11T14:46:39;9.60;99.90
23471;DHT22;11908;50.806;4.424;2023-03-11T14:49:07;9.60;99.90
23471;DHT22;11908;50.806;4.424;2023-03-11T14:51:37;9.40;99.90
23471;DHT22;11908;50.806;4.424;2023-03-11T14:54:24;9.20;99.90
23471;DHT22;11908;50.806;4.424;2023-03-11T14:57:03;9.10;99.90
23471;DHT22;11908;50.806;4.424;2023-03-11T14:59:30;9.00;99.90
23471;DHT22;11908;50.806;4.424;2023-03-11T15:02:53;8.90;99.90
23471;DHT22;11908;50.806;4.424;2023-03-11T15:04:51;8.70;99.90
23471;DHT22;11908;50.806;4.424;2023-03-11T15:07:19;8.70;99.90
23471;DHT22;11908;50.806;4.424;2023-03-11T15:09:45;8.80;99.90
23471;DHT22;11908;50.806;4.424;2023-03-11T15:12:32;8.90;99.90
23471;DHT22;11908;50.806;4.424;2023-03-11T15:14:58;9.00;99.90
23471;DHT22;11908;50.806;4.424;2023-03-11T15:17:26;9.00;99.90
23471;DHT22;11908;50.806;4.424;2023-03-11T15:19:56;9.10;99.90
23471;DHT22;11908;50.806;4.424;2023-03-11T15:22:25;9.00;99.90
23471;DHT22;11908;50.806;4.424;2023-03-11T15:24:53;9.10;99.90
23471;DHT22;11908;50.806;4.424;2023-03-11T15:27:40;9.10;99.90
23471;DHT22;11908;50.806;4.424;2023-03-11T15:30:29;9.10;99.90
23471;DHT22;11908;50.806;4.424;2023-03-11T15:32:56;9.10;99.90
23471;DHT22;11908;50.806;4.424;2023-03-11T15:35:25;9.00;99.90
23471;DHT22;11908;50.806;4.424;2023-03-11T15:40:37;8.90;99.90
23471;DHT22;11908;50.806;4.424;2023-03-11T15:43:20;9.00;99.90
23471;DHT22;11908;50.806;4.424;2023-03-11T15:45:48;9.00;99.90
23471;DHT22;11908;50.806;4.424;2023-03-11T15:48:14;8.80;99.90
23471;DHT22;11908;50.806;4.424;2023-03-11T15:51:16;8.60;99.90
23471;DHT22;11908;50.806;4.424;2023-03-11T15:53:42;8.50;99.90
23471;DHT22;11908;50.806;4.424;2023-03-11T15:56:13;8.60;99.90
23471;DHT22;11908;50.806;4.424;2023-03-11T15:58:42;8.50;99.90
23471;DHT22;11908;50.806;4.424;2023-03-11T16:01:08;8.60;99.90
23471;DHT22;11908;50.806;4.424;2023-03-11T16:03:34;8.70;99.90
23471;DHT22;11908;50.806;4.424;2023-03-11T16:06:00;8.70;99.90
23471;DHT22;11908;50.806;4.424;2023-03-11T16:08:25;8.60;99.90
23471;DHT22;11908;50.806;4.424;2023-03-11T16:10:51;8.50;99.90
23471;DHT22;11908;50.806;4.424;2023-03-11T16:13:17;8.30;99.90
23471;DHT22;11908;50.806;4.424;2023-03-11T16:15:43;8.20;99.90
23471;DHT22;11908;50.806;4.424;2023-03-11T16:18:11;8.10;99.90
23471;DHT22;11908;50.806;4.424;2023-03-11T16:20:49;8.00;99.90
23471;DHT22;11908;50.806;4.424;2023-03-11T16:23:21;8.00;99.90
23471;DHT22;11908;50.806;4.424;2023-03-11T16:25:49;8.00;99.90
23471;DHT22;11908;50.806;4.424;2023-03-11T16:28:16;8.10;99.90
23471;DHT22;11908;50.806;4.424;2023-03-11T16:30:42;8.30;99.90
23471;DHT22;11908;50.806;4.424;2023-03-11T16:33:08;8.40;99.90
23471;DHT22;11908;50.806;4.424;2023-03-11T16:35:34;8.50;99.90
23471;DHT22;11908;50.806;4.424;2023-03-11T16:38:00;8.40;99.90
23471;DHT22;11908;50.806;4.424;2023-03-11T16:40:27;8.20;99.90
23471;DHT22;11908;50.806;4.424;2023-03-11T16:43:05;8.20;99.90
23471;DHT22;11908;50.806;4.424;2023-03-11T16:45:31;8.20;99.90
23471;DHT22;11908;50.806;4.424;2023-03-11T16:47:56;8.30;99.90
23471;DHT22;11908;50.806;4.424;2023-03-11T16:50:22;8.10;99.90
23471;DHT22;11908;50.806;4.424;2023-03-11T16:52:52;8.10;99.90
23471;DHT22;11908;50.806;4.424;2023-03-11T16:55:18;8.20;99.90
23471;DHT22;11908;50.806;4.424;2023-03-11T16:57:44;8.20;99.90
23471;DHT22;11908;50.806;4.424;2023-03-11T17:00:11;8.20;99.90
23471;DHT22;11908;50.806;4.424;2023-03-11T17:02:37;8.30;99.90
23471;DHT22;11908;50.806;4.424;2023-03-11T17:05:04;8.30;99.90
23471;DHT22;11908;50.806;4.424;2023-03-11T17:07:30;8.20;99.90
23471;DHT22;11908;50.806;4.424;2023-03-11T17:09:57;8.10;99.90
23471;DHT22;11908;50.806;4.424;2023-03-11T17:12:24;8.00;99.90
23471;DHT22;11908;50.806;4.424;2023-03-11T17:14:50;8.00;99.90
23471;DHT22;11908;50.806;4.424;2023-03-11T17:17:16;8.00;99.90
23471;DHT22;11908;50.806;4.424;2023-03-11T17:19:42;8.00;99.90
23471;DHT22;11908;50.806;4.424;2023-03-11T17:22:08;7.90;99.90
23471;DHT22;11908;50.806;4.424;2023-03-11T17:24:35;7.90;99.90
23471;DHT22;11908;50.806;4.424;2023-03-11T17:27:00;7.90;99.90
23471;DHT22;11908;50.806;4.424;2023-03-11T17:29:26;7.90;99.90